Time;durP1;ratioP1;P1;durP2;ratioP2;P2;SDS_P1;SDS_P2;PMS_P1;PMS_P2;Temp;Humidity;BMP_temperature;BMP_pressure;BME280_temperature;BME280_humidity;BME280_pressure;Samples;Min_cycle;Max_cycle;Signal;HPM_P1;HPM_P2
2024/02/19 00:02:15;;;;;;;32.43;15.60;;;;;;;;;;7344137;19;20411;-45
2024/02/19 00:04:45;;;;;;;31.27;14.47;;;;;;;;;;7318926;19;20399;-45
2024/02/19 00:07:17;;;;;;;29.20;14.13;;;;;;;;;;7344740;19;20795;-45
2024/02/19 00:09:47;;;;;;;33.03;14.27;;;;;;;;;;7323803;19;21025;-46
2024/02/19 00:12:17;;;;;;;31.87;14.67;;;;;;;;;;7344637;19;20503;-48
2024/02/19 00:14:49;;;;;;;34.83;14.90;;;;;;;;;;7321992;19;20403;-44
2024/02/19 00:17:18;;;;;;;28.03;12.97;;;;;;;;;;7345202;19;20499;-47
2024/02/19 00:19:47;;;;;;;26.90;12.83;;;;;;;;;;7323986;19;20467;-44
2024/02/19 00:22:17;;;;;;;24.57;12.50;;;;;;;;;;7346907;19;20423;-46
2024/02/19 00:24:46;;;;;;;27.60;13.07;;;;;;;;;;7322135;19;20410;-45
2024/02/19 00:27:17;;;;;;;23.90;11.87;;;;;;;;;;7343012;19;20439;-45
2024/02/19 00:29:49;;;;;;;27.43;12.70;;;;;;;;;;7322388;19;20415;-45
2024/02/19 00:32:18;;;;;;;26.10;13.37;;;;;;;;;;7343940;19;20430;-48
2024/02/19 00:34:48;;;;;;;26.60;11.73;;;;;;;;;;7322044;19;20490;-47
2024/02/19 00:37:17;;;;;;;26.20;11.70;;;;;;;;;;7344499;19;20466;-45
2024/02/19 00:39:46;;;;;;;25.53;12.03;;;;;;;;;;7322219;19;20395;-46
2024/02/19 00:42:16;;;;;;;25.67;11.83;;;;;;;;;;7343216;19;20428;-47
2024/02/19 00:44:45;;;;;;;25.33;11.50;;;;;;;;;;7317921;19;20437;-45
2024/02/19 00:47:17;;;;;;;25.00;11.40;;;;;;;;;;7343035;19;20407;-45
2024/02/19 00:49:46;;;;;;;21.77;10.43;;;;;;;;;;7322074;19;20395;-46
2024/02/19 00:52:16;;;;;;;22.63;10.60;;;;;;;;;;7346122;19;21435;-44
2024/02/19 00:54:46;;;;;;;20.47;10.03;;;;;;;;;;7328843;19;21024;-46
2024/02/19 00:57:15;;;;;;;20.77;10.27;;;;;;;;;;7349811;19;20403;-44
2024/02/19 00:59:45;;;;;;;20.50;8.50;;;;;;;;;;7327331;19;20391;-46
2024/02/19 01:02:17;;;;;;;14.87;7.47;;;;;;;;;;7348034;19;20474;-47
2024/02/19 01:04:46;;;;;;;11.17;6.27;;;;;;;;;;7326557;19;20398;-45
2024/02/19 01:07:17;;;;;;;13.93;6.67;;;;;;;;;;7349219;19;20474;-46
2024/02/19 01:09:47;;;;;;;13.40;7.70;;;;;;;;;;7328482;19;20391;-44
2024/02/19 01:12:17;;;;;;;10.00;5.73;;;;;;;;;;7349445;19;20399;-45
2024/02/19 01:14:46;;;;;;;11.20;6.10;;;;;;;;;;7327589;19;20482;-44
2024/02/19 01:17:18;;;;;;;11.67;6.37;;;;;;;;;;7349819;19;20825;-46
2024/02/19 01:19:47;;;;;;;7.80;4.33;;;;;;;;;;7329020;19;20391;-47
2024/02/19 01:22:17;;;;;;;5.13;2.70;;;;;;;;;;7348889;19;20395;-45
2024/02/19 01:24:46;;;;;;;11.10;4.20;;;;;;;;;;7327515;19;20398;-44
2024/02/19 01:27:16;;;;;;;4.70;1.80;;;;;;;;;;7348241;19;20840;-48
2024/02/19 01:29:45;;;;;;;3.27;2.40;;;;;;;;;;7327227;19;20411;-45
2024/02/19 01:32:17;;;;;;;6.80;3.07;;;;;;;;;;7349643;19;20403;-44
2024/02/19 01:34:47;;;;;;;7.50;3.70;;;;;;;;;;7326855;19;20403;-46
2024/02/19 01:37:16;;;;;;;4.90;2.77;;;;;;;;;;7348354;19;20403;-44
2024/02/19 01:39:47;;;;;;;5.30;3.20;;;;;;;;;;7327345;19;20414;-45
2024/02/19 01:42:16;;;;;;;6.20;2.93;;;;;;;;;;7347563;19;21062;-44
2024/02/19 01:44:46;;;;;;;4.03;2.83;;;;;;;;;;7326299;19;20403;-45
2024/02/19 01:47:18;;;;;;;5.97;3.07;;;;;;;;;;7348150;19;20413;-45
2024/02/19 01:49:47;;;;;;;5.23;2.97;;;;;;;;;;7327514;19;20836;-45
2024/02/19 01:52:17;;;;;;;5.57;2.90;;;;;;;;;;7348054;19;20442;-44
2024/02/19 01:54:46;;;;;;;3.67;3.03;;;;;;;;;;7325961;19;20399;-47
2024/02/19 01:57:16;;;;;;;21.80;7.03;;;;;;;;;;7348291;19;20448;-44
2024/02/19 01:59:47;;;;;;;4.67;2.70;;;;;;;;;;7327003;19;21067;-46
2024/02/19 02:02:21;;;;;;;16.50;5.30;;;;;;;;;;7346750;19;20446;-44
2024/02/19 02:04:51;;;;;;;3.60;2.30;;;;;;;;;;7323089;19;20997;-44
2024/02/19 02:07:21;;;;;;;7.23;3.53;;;;;;;;;;7347667;19;20418;-47
2024/02/19 02:09:51;;;;;;;5.60;3.10;;;;;;;;;;7327019;19;20395;-46
2024/02/19 02:12:20;;;;;;;4.90;2.87;;;;;;;;;;7348263;19;20486;-45
2024/02/19 02:14:50;;;;;;;6.80;3.80;;;;;;;;;;7325280;19;20405;-44
2024/02/19 02:17:21;;;;;;;4.67;2.80;;;;;;;;;;7347142;19;20466;-43
2024/02/19 02:19:51;;;;;;;5.97;3.27;;;;;;;;;;7325886;19;20405;-44
2024/02/19 02:22:21;;;;;;;3.10;2.70;;;;;;;;;;7346740;19;20407;-46
2024/02/19 02:24:50;;;;;;;7.73;3.80;;;;;;;;;;7325616;19;20463;-48
2024/02/19 02:27:22;;;;;;;8.97;4.60;;;;;;;;;;7346304;19;20406;-44
2024/02/19 02:29:51;;;;;;;5.43;3.23;;;;;;;;;;7326587;19;20395;-44
2024/02/19 02:32:21;;;;;;;9.23;3.63;;;;;;;;;;7341936;19;20399;-44
2024/02/19 02:34:50;;;;;;;4.73;3.60;;;;;;;;;;7345346;19;20396;-45
2024/02/19 02:37:20;;;;;;;8.40;4.30;;;;;;;;;;7342451;19;20407;-45
2024/02/19 02:39:50;;;;;;;12.50;4.73;;;;;;;;;;7325604;19;20387;-44
2024/02/19 02:42:22;;;;;;;5.63;4.10;;;;;;;;;;7346012;19;21236;-44
2024/02/19 02:44:51;;;;;;;6.20;3.93;;;;;;;;;;7324237;19;20403;-45
2024/02/19 02:47:21;;;;;;;6.90;3.93;;;;;;;;;;7346515;19;20399;-45
2024/02/19 02:49:50;;;;;;;8.60;4.30;;;;;;;;;;7325476;19;20419;-46
2024/02/19 02:52:19;;;;;;;7.70;4.37;;;;;;;;;;7346807;19;20835;-46
2024/02/19 02:54:49;;;;;;;12.80;4.87;;;;;;;;;;7323931;19;20401;-45
2024/02/19 02:57:18;;;;;;;9.80;4.83;;;;;;;;;;7346356;19;20395;-45
2024/02/19 02:59:50;;;;;;;6.43;3.57;;;;;;;;;;7324817;19;20448;-45
2024/02/19 03:02:20;;;;;;;8.20;3.83;;;;;;;;;;7345753;19;20502;-44
2024/02/19 03:04:49;;;;;;;6.90;3.60;;;;;;;;;;7324051;19;21366;-45
2024/02/19 03:07:19;;;;;;;7.23;3.80;;;;;;;;;;7345399;19;20510;-46
2024/02/19 03:09:48;;;;;;;8.90;4.40;;;;;;;;;;7326599;19;20449;-44
2024/02/19 03:12:18;;;;;;;7.67;3.67;;;;;;;;;;7345483;19;20415;-44
2024/02/19 03:14:48;;;;;;;8.90;3.00;;;;;;;;;;7323882;19;20475;-46
2024/02/19 03:17:20;;;;;;;6.00;3.80;;;;;;;;;;7345628;19;20428;-46
2024/02/19 03:19:50;;;;;;;12.60;3.93;;;;;;;;;;7324664;19;20399;-45
2024/02/19 03:22:19;;;;;;;12.20;4.30;;;;;;;;;;7344458;19;20578;-47
2024/02/19 03:24:49;;;;;;;8.63;4.53;;;;;;;;;;7323028;19;20395;-47
2024/02/19 03:27:18;;;;;;;9.37;3.90;;;;;;;;;;7344800;19;20431;-44
2024/02/19 03:29:47;;;;;;;11.30;3.00;;;;;;;;;;7324951;19;20815;-46
2024/02/19 03:32:19;;;;;;;5.60;3.23;;;;;;;;;;7345287;19;20445;-47
2024/02/19 03:34:49;;;;;;;5.83;2.83;;;;;;;;;;7323709;19;20442;-44
2024/02/19 03:37:18;;;;;;;6.90;2.77;;;;;;;;;;7344725;19;20399;-43
2024/02/19 03:39:49;;;;;;;5.70;2.40;;;;;;;;;;7324563;19;20396;-46
2024/02/19 03:42:19;;;;;;;4.83;2.33;;;;;;;;;;7344920;19;20427;-45
2024/02/19 03:44:48;;;;;;;4.50;2.20;;;;;;;;;;7322129;19;20484;-45
2024/02/19 03:47:21;;;;;;;4.60;2.50;;;;;;;;;;7344312;19;20490;-51
2024/02/19 03:49:51;;;;;;;4.37;2.00;;;;;;;;;;7323805;19;20470;-47
2024/02/19 03:52:20;;;;;;;5.83;2.90;;;;;;;;;;7344376;19;21002;-45
2024/02/19 03:54:50;;;;;;;6.57;2.23;;;;;;;;;;7322236;19;20487;-48
2024/02/19 03:57:22;;;;;;;13.20;2.67;;;;;;;;;;7343929;19;20407;-45
2024/02/19 03:59:52;;;;;;;4.17;2.30;;;;;;;;;;7323149;19;20384;-49
2024/02/19 04:02:24;;;;;;;12.77;2.20;;;;;;;;;;7343499;19;20491;-46
2024/02/19 04:04:53;;;;;;;8.70;2.23;;;;;;;;;;7321741;19;20762;-49
2024/02/19 04:07:24;;;;;;;6.70;2.40;;;;;;;;;;7324765;19;20486;-45
2024/02/19 04:09:53;;;;;;;3.67;2.00;;;;;;;;;;7344485;19;20417;-46
2024/02/19 04:12:23;;;;;;;7.00;2.63;;;;;;;;;;7324095;19;20411;-48
2024/02/19 04:14:52;;;;;;;6.73;2.00;;;;;;;;;;7342752;19;20400;-46
2024/02/19 04:17:26;;;;;;;3.60;1.80;;;;;;;;;;7339927;19;20403;-44
2024/02/19 04:19:56;;;;;;;5.00;1.40;;;;;;;;;;7343914;19;20395;-46
2024/02/19 04:22:25;;;;;;;7.20;1.77;;;;;;;;;;7321279;19;20471;-46
2024/02/19 04:24:55;;;;;;;5.20;1.93;;;;;;;;;;7342835;19;20423;-48
2024/02/19 04:27:24;;;;;;;7.03;1.90;;;;;;;;;;7317643;19;20806;-48
2024/02/19 04:29:53;;;;;;;7.03;2.20;;;;;;;;;;7343837;19;20406;-48
2024/02/19 04:32:25;;;;;;;6.13;1.90;;;;;;;;;;7323674;19;20411;-44
2024/02/19 04:34:57;;;;;;;3.67;1.47;;;;;;;;;;7341895;19;20436;-48
2024/02/19 04:37:26;;;;;;;5.30;1.17;;;;;;;;;;7320407;19;20483;-46
2024/02/19 04:39:56;;;;;;;4.80;1.10;;;;;;;;;;7343087;19;20414;-46
2024/02/19 04:42:25;;;;;;;2.53;1.10;;;;;;;;;;7320103;19;20399;-46
2024/02/19 04:44:55;;;;;;;4.63;1.00;;;;;;;;;;7341385;19;20392;-46
2024/02/19 04:47:27;;;;;;;7.57;1.00;;;;;;;;;;7320101;19;20403;-48
2024/02/19 04:49:56;;;;;;;1.53;1.03;;;;;;;;;;7343412;19;20462;-46
2024/02/19 04:52:26;;;;;;;4.30;0.97;;;;;;;;;;7319759;19;21066;-45
2024/02/19 04:54:55;;;;;;;2.20;1.10;;;;;;;;;;7341428;19;20395;-45
2024/02/19 04:57:24;;;;;;;6.40;0.80;;;;;;;;;;7319730;19;20403;-44
2024/02/19 04:59:54;;;;;;;4.63;1.00;;;;;;;;;;7342386;19;20403;-44
2024/02/19 05:02:23;;;;;;;3.20;0.90;;;;;;;;;;7319441;19;20402;-46
2024/02/19 05:04:55;;;;;;;5.20;1.37;;;;;;;;;;7340657;19;20416;-47
2024/02/19 05:07:25;;;;;;;2.03;0.90;;;;;;;;;;7320156;19;20490;-46
2024/02/19 05:09:54;;;;;;;3.83;0.87;;;;;;;;;;7342057;19;20427;-46
2024/02/19 05:12:24;;;;;;;1.30;0.77;;;;;;;;;;7319374;19;20444;-45
2024/02/19 05:14:53;;;;;;;2.20;1.00;;;;;;;;;;7341913;19;20395;-47
2024/02/19 05:17:23;;;;;;;3.80;0.90;;;;;;;;;;7324408;19;20973;-45
2024/02/19 05:19:52;;;;;;;1.40;0.50;;;;;;;;;;7343483;19;20399;-44
2024/02/19 05:22:25;;;;;;;2.00;0.70;;;;;;;;;;7334593;19;20403;-44
2024/02/19 05:24:54;;;;;;;1.40;0.50;;;;;;;;;;7340773;19;20427;-46
2024/02/19 05:27:25;;;;;;;1.87;0.80;;;;;;;;;;7317905;19;20448;-44
2024/02/19 05:29:54;;;;;;;6.03;0.50;;;;;;;;;;7341297;19;20482;-45
2024/02/19 05:32:24;;;;;;;1.83;0.50;;;;;;;;;;7318595;19;20426;-46
2024/02/19 05:34:53;;;;;;;1.20;0.40;;;;;;;;;;7340292;19;20399;-46
2024/02/19 05:37:25;;;;;;;1.30;0.60;;;;;;;;;;7323416;19;20467;-46
2024/02/19 05:39:55;;;;;;;2.43;0.60;;;;;;;;;;7348045;19;20403;-48
2024/02/19 05:42:24;;;;;;;2.07;0.50;;;;;;;;;;7326767;19;20441;-45
2024/02/19 05:44:54;;;;;;;2.50;0.50;;;;;;;;;;7347180;19;20454;-45
2024/02/19 05:47:23;;;;;;;1.30;0.60;;;;;;;;;;7327816;19;20407;-44
2024/02/19 05:49:53;;;;;;;1.37;0.50;;;;;;;;;;7347960;19;20395;-46
2024/02/19 05:52:22;;;;;;;1.63;0.60;;;;;;;;;;7337462;19;21065;-44
2024/02/19 05:54:56;;;;;;;2.20;0.50;;;;;;;;;;7346661;19;20402;-45
2024/02/19 05:57:25;;;;;;;1.90;0.70;;;;;;;;;;7324527;19;20431;-47
2024/02/19 05:59:55;;;;;;;4.23;1.00;;;;;;;;;;7347859;19;20493;-47
2024/02/19 06:02:27;;;;;;;1.20;0.60;;;;;;;;;;7325623;19;20409;-44
2024/02/19 06:04:57;;;;;;;1.70;0.93;;;;;;;;;;7345696;19;20434;-47
2024/02/19 06:07:26;;;;;;;2.13;0.90;;;;;;;;;;7325150;19;20395;-44
2024/02/19 06:09:58;;;;;;;2.13;1.20;;;;;;;;;;7347108;19;20407;-44
2024/02/19 06:12:28;;;;;;;4.03;1.80;;;;;;;;;;7325319;19;21021;-45
2024/02/19 06:14:57;;;;;;;1.70;1.57;;;;;;;;;;7345537;19;20474;-44
2024/02/19 06:17:26;;;;;;;5.70;1.83;;;;;;;;;;7324825;19;20829;-46
2024/02/19 06:19:56;;;;;;;5.57;2.47;;;;;;;;;;7347111;19;20392;-46
2024/02/19 06:22:26;;;;;;;6.37;3.00;;;;;;;;;;7324313;19;20499;-44
2024/02/19 06:24:55;;;;;;;6.30;3.63;;;;;;;;;;7345229;19;20403;-45
2024/02/19 06:27:27;;;;;;;6.10;3.43;;;;;;;;;;7323132;19;20485;-44
2024/02/19 06:29:56;;;;;;;4.20;3.03;;;;;;;;;;7347100;19;20758;-46
2024/02/19 06:32:26;;;;;;;6.33;3.60;;;;;;;;;;7325143;19;20403;-45
2024/02/19 06:34:55;;;;;;;5.77;2.70;;;;;;;;;;7344637;19;20905;-44
2024/02/19 06:37:25;;;;;;;5.53;2.07;;;;;;;;;;7323607;19;20424;-45
2024/02/19 06:39:54;;;;;;;4.50;1.47;;;;;;;;;;7345941;19;20482;-45
2024/02/19 06:42:26;;;;;;;2.40;1.70;;;;;;;;;;7323786;19;20410;-46
2024/02/19 06:44:56;;;;;;;3.60;1.77;;;;;;;;;;7344184;19;21053;-46
2024/02/19 06:47:25;;;;;;;3.60;1.60;;;;;;;;;;7323282;19;20482;-45
2024/02/19 06:49:54;;;;;;;1.80;1.30;;;;;;;;;;7344238;19;20395;-46
2024/02/19 06:52:24;;;;;;;4.70;0.93;;;;;;;;;;7323917;19;20403;-45
2024/02/19 06:54:54;;;;;;;4.20;1.90;;;;;;;;;;7343908;19;20410;-44
2024/02/19 06:57:23;;;;;;;3.90;2.20;;;;;;;;;;7321474;19;20444;-46
2024/02/19 06:59:55;;;;;;;3.40;2.10;;;;;;;;;;7346956;19;20460;-50
2024/02/19 07:02:25;;;;;;;3.80;1.90;;;;;;;;;;7325218;19;20423;-47
2024/02/19 07:04:54;;;;;;;3.10;1.60;;;;;;;;;;7345393;19;20400;-52
2024/02/19 07:07:24;;;;;;;4.40;2.93;;;;;;;;;;7323251;19;20482;-50
2024/02/19 07:09:53;;;;;;;5.13;3.03;;;;;;;;;;7346314;19;20419;-52
2024/02/19 07:12:23;;;;;;;5.60;3.53;;;;;;;;;;7331393;19;20410;-48
2024/02/19 07:14:55;;;;;;;6.03;3.20;;;;;;;;;;7345666;19;20401;-51
2024/02/19 07:17:25;;;;;;;5.27;3.03;;;;;;;;;;7324331;19;20506;-50
2024/02/19 07:19:55;;;;;;;5.90;3.07;;;;;;;;;;7345349;19;20416;-48
2024/02/19 07:22:25;;;;;;;5.83;2.87;;;;;;;;;;7322872;19;20424;-47
2024/02/19 07:24:54;;;;;;;3.63;2.50;;;;;;;;;;7344014;19;20430;-49
2024/02/19 07:27:41;;;;;;;5.10;2.73;;;;;;;;;;7321243;19;20506;-51
2024/02/19 07:30:14;;;;;;;6.43;3.07;;;;;;;;;;7346062;19;20399;-47
2024/02/19 07:32:44;;;;;;;6.53;3.23;;;;;;;;;;7322310;19;20431;-48
2024/02/19 07:35:13;;;;;;;5.90;3.30;;;;;;;;;;7343540;19;20494;-51
2024/02/19 07:37:43;;;;;;;9.37;1.93;;;;;;;;;;7322702;19;20840;-48
2024/02/19 07:40:12;;;;;;;5.93;2.00;;;;;;;;;;7344404;19;20875;-53
2024/02/19 07:42:42;;;;;;;3.90;2.50;;;;;;;;;;7321890;19;20389;-49
2024/02/19 07:45:14;;;;;;;4.90;2.53;;;;;;;;;;7343507;19;20486;-50
2024/02/19 07:47:43;;;;;;;3.30;2.17;;;;;;;;;;7322316;19;20459;-50
2024/02/19 07:50:13;;;;;;;5.00;2.40;;;;;;;;;;7345275;19;20499;-48
2024/02/19 07:52:43;;;;;;;8.00;3.07;;;;;;;;;;7322406;19;20989;-49
2024/02/19 07:55:12;;;;;;;8.30;3.03;;;;;;;;;;7343447;19;20406;-50
2024/02/19 07:57:42;;;;;;;7.20;2.53;;;;;;;;;;7322408;19;20392;-50
2024/02/19 08:00:14;;;;;;;6.17;2.90;;;;;;;;;;7344268;19;20424;-50
2024/02/19 08:02:43;;;;;;;5.40;2.40;;;;;;;;;;7319814;19;20380;-50
2024/02/19 08:05:13;;;;;;;3.77;1.80;;;;;;;;;;7343501;19;21052;-50
2024/02/19 08:07:43;;;;;;;3.20;1.70;;;;;;;;;;7321689;19;20938;-47
2024/02/19 08:10:12;;;;;;;3.40;2.00;;;;;;;;;;7344015;19;20440;-51
2024/02/19 08:12:42;;;;;;;4.10;1.90;;;;;;;;;;7321729;19;22390;-49
2024/02/19 08:15:14;;;;;;;5.10;1.93;;;;;;;;;;7343291;19;20498;-51
2024/02/19 08:17:44;;;;;;;2.90;1.17;;;;;;;;;;7321530;19;20395;-47
2024/02/19 08:20:13;;;;;;;5.43;1.30;;;;;;;;;;7344015;19;20403;-47
2024/02/19 08:22:43;;;;;;;3.93;1.53;;;;;;;;;;7321108;19;20412;-51
2024/02/19 08:25:15;;;;;;;4.37;1.50;;;;;;;;;;7341874;19;20466;-50
2024/02/19 08:27:44;;;;;;;2.83;1.10;;;;;;;;;;7319935;19;20402;-51
2024/02/19 08:30:19;;;;;;;1.70;1.00;;;;;;;;;;7343909;19;20399;-50
2024/02/19 08:32:49;;;;;;;1.67;1.00;;;;;;;;;;7322564;19;20388;-47
2024/02/19 08:35:18;;;;;;;9.43;1.70;;;;;;;;;;7342858;19;20415;-48
2024/02/19 08:37:48;;;;;;;3.20;1.50;;;;;;;;;;7321988;19;20391;-52
2024/02/19 08:40:17;;;;;;;6.30;2.10;;;;;;;;;;7343567;19;21028;-47
2024/02/19 08:42:47;;;;;;;6.33;1.90;;;;;;;;;;7321723;19;20394;-53
2024/02/19 08:45:16;;;;;;;3.00;1.70;;;;;;;;;;7342033;19;20419;-48
2024/02/19 08:47:52;;;;;;;6.20;1.40;;;;;;;;;;7321537;19;20476;-51
2024/02/19 08:50:22;;;;;;;8.43;1.63;;;;;;;;;;7339459;19;20403;-48
2024/02/19 08:52:51;;;;;;;3.73;1.50;;;;;;;;;;7342520;19;20403;-48
2024/02/19 08:55:21;;;;;;;7.87;1.40;;;;;;;;;;7341593;19;20885;-52
2024/02/19 08:57:50;;;;;;;6.77;2.27;;;;;;;;;;7321135;19;20409;-49
2024/02/19 09:00:20;;;;;;;10.00;2.80;;;;;;;;;;7342855;19;20878;-49
2024/02/19 09:02:52;;;;;;;9.20;2.50;;;;;;;;;;7321717;19;20391;-47
2024/02/19 09:05:22;;;;;;;14.57;2.20;;;;;;;;;;7341561;19;20415;-53
2024/02/19 09:07:52;;;;;;;4.07;1.67;;;;;;;;;;7321149;19;20406;-50
2024/02/19 09:10:21;;;;;;;12.47;2.57;;;;;;;;;;7343804;19;20427;-49
2024/02/19 09:12:51;;;;;;;10.27;1.97;;;;;;;;;;7323148;19;20391;-50
2024/02/19 09:15:21;;;;;;;10.03;1.90;;;;;;;;;;7347940;19;21085;-51
2024/02/19 09:17:53;;;;;;;6.47;1.70;;;;;;;;;;7328422;19;20827;-47
2024/02/19 09:20:22;;;;;;;8.93;2.40;;;;;;;;;;7345111;19;20407;-49
2024/02/19 09:22:52;;;;;;;7.20;2.30;;;;;;;;;;7348064;19;20486;-50
2024/02/19 09:25:23;;;;;;;9.00;2.77;;;;;;;;;;7346733;19;21199;-46
2024/02/19 09:27:53;;;;;;;10.27;1.90;;;;;;;;;;7327524;19;20426;-49
2024/02/19 09:30:22;;;;;;;9.00;2.23;;;;;;;;;;7347957;19;20427;-48
2024/02/19 09:32:55;;;;;;;10.40;2.37;;;;;;;;;;7351807;19;20775;-48
2024/02/19 09:35:24;;;;;;;4.90;2.43;;;;;;;;;;7325911;19;20510;-38
2024/02/19 09:37:54;;;;;;;7.73;3.20;;;;;;;;;;7348437;19;20944;-45
2024/02/19 09:40:23;;;;;;;8.23;2.60;;;;;;;;;;7334213;19;20407;-44
2024/02/19 09:42:53;;;;;;;8.70;2.70;;;;;;;;;;7348910;19;20784;-48
2024/02/19 09:45:23;;;;;;;8.93;3.50;;;;;;;;;;7342267;19;20470;-48
2024/02/19 09:47:58;;;;;;;17.40;3.30;;;;;;;;;;7347301;19;21014;-44
2024/02/19 09:50:31;;;;;;;17.07;5.47;;;;;;;;;;7325502;19;20415;-46
2024/02/19 09:53:07;;;;;;;25.97;9.23;;;;;;;;;;7347483;19;20403;-46
2024/02/19 09:55:36;;;;;;;23.17;6.10;;;;;;;;;;7323973;19;20958;-48
2024/02/19 09:58:06;;;;;;;34.70;9.57;;;;;;;;;;7346928;19;20796;-45
2024/02/19 10:00:36;;;;;;;20.37;3.70;;;;;;;;;;7324461;19;20399;-45
2024/02/19 10:03:09;;;;;;;24.00;6.37;;;;;;;;;;7347235;19;20449;-45
2024/02/19 10:05:39;;;;;;;29.10;8.37;;;;;;;;;;7324709;19;20423;-46
2024/02/19 10:08:12;;;;;;;8.80;4.00;;;;;;;;;;7347906;19;20812;-45
2024/02/19 10:10:42;;;;;;;28.03;9.80;;;;;;;;;;7325734;19;20420;-45
2024/02/19 10:13:15;;;;;;;12.40;3.97;;;;;;;;;;7346816;19;20452;-50
2024/02/19 10:15:45;;;;;;;13.23;5.23;;;;;;;;;;7325408;19;20414;-47
2024/02/19 10:18:19;;;;;;;14.87;4.77;;;;;;;;;;7347666;19;20409;-45
2024/02/19 10:20:50;;;;;;;10.87;3.70;;;;;;;;;;7326187;19;20398;-46
2024/02/19 10:23:20;;;;;;;17.83;5.30;;;;;;;;;;7346857;19;20409;-45
2024/02/19 10:25:52;;;;;;;23.17;6.20;;;;;;;;;;7323441;19;20404;-45
2024/02/19 10:28:23;;;;;;;16.07;4.57;;;;;;;;;;7347514;19;20514;-50
2024/02/19 10:30:53;;;;;;;17.77;3.97;;;;;;;;;;7326074;19;20431;-44
2024/02/19 10:33:25;;;;;;;13.50;3.43;;;;;;;;;;7343296;19;20435;-42
2024/02/19 10:35:55;;;;;;;16.40;3.33;;;;;;;;;;7346307;19;20414;-44
2024/02/19 10:38:24;;;;;;;9.10;3.20;;;;;;;;;;7323645;19;20814;-45
2024/02/19 10:40:54;;;;;;;9.03;3.07;;;;;;;;;;7346718;19;20470;-44
2024/02/19 10:43:23;;;;;;;12.03;2.63;;;;;;;;;;7332678;19;20490;-47
2024/02/19 10:45:53;;;;;;;3.80;2.10;;;;;;;;;;7345816;19;20407;-48
2024/02/19 10:48:25;;;;;;;5.47;2.27;;;;;;;;;;7336633;19;20400;-44
2024/02/19 10:50:55;;;;;;;3.63;1.53;;;;;;;;;;7346666;19;20402;-46
2024/02/19 10:53:29;;;;;;;6.13;1.63;;;;;;;;;;7322961;19;20407;-47
2024/02/19 10:56:10;;;;;;;4.93;1.40;;;;;;;;;;7345562;19;20479;-44
2024/02/19 10:58:39;;;;;;;10.83;2.93;;;;;;;;;;7321237;19;21050;-49
2024/02/19 11:01:09;;;;;;;5.77;1.30;;;;;;;;;;7346592;19;20475;-44
2024/02/19 11:03:47;;;;;;;23.77;8.30;;;;;;;;;;7322658;19;20451;-45
2024/02/19 11:06:17;;;;;;;6.63;2.40;;;;;;;;;;7344952;19;20418;-47
2024/02/19 11:08:54;;;;;;;9.17;3.87;;;;;;;;;;7323704;19;21113;-45
2024/02/19 11:11:24;;;;;;;6.20;2.07;;;;;;;;;;7329325;19;20510;-44
2024/02/19 11:13:54;;;;;;;4.67;2.77;;;;;;;;;;7346656;19;20491;-48
2024/02/19 11:16:28;;;;;;;5.20;1.63;;;;;;;;;;7330109;19;20526;-46
2024/02/19 11:19:02;;;;;;;28.53;8.43;;;;;;;;;;7344958;19;20399;-48
2024/02/19 11:21:31;;;;;;;9.67;2.97;;;;;;;;;;7320670;19;20403;-43
2024/02/19 11:24:01;;;;;;;24.17;5.50;;;;;;;;;;7344813;19;20411;-45
2024/02/19 11:26:31;;;;;;;30.30;9.83;;;;;;;;;;7319722;19;20490;-49
2024/02/19 11:29:00;;;;;;;12.77;4.20;;;;;;;;;;7343516;19;20423;-49
2024/02/19 11:31:30;;;;;;;8.00;3.17;;;;;;;;;;7321808;19;20399;-45
2024/02/19 11:34:02;;;;;;;20.47;3.80;;;;;;;;;;7344461;19;20570;-46
2024/02/19 11:36:32;;;;;;;16.60;3.77;;;;;;;;;;7319467;19;20467;-48
2024/02/19 11:39:01;;;;;;;28.43;8.60;;;;;;;;;;7344390;19;20419;-44
2024/02/19 11:41:31;;;;;;;16.93;3.50;;;;;;;;;;7321672;19;20446;-47
2024/02/19 11:44:00;;;;;;;27.03;5.00;;;;;;;;;;7342959;19;20427;-46
2024/02/19 11:46:30;;;;;;;16.00;3.07;;;;;;;;;;7322196;19;20543;-46
2024/02/19 11:49:03;;;;;;;19.83;3.33;;;;;;;;;;7343432;19;20423;-47
2024/02/19 11:51:34;;;;;;;17.70;3.63;;;;;;;;;;7319848;19;20498;-47
2024/02/19 11:54:04;;;;;;;13.73;4.00;;;;;;;;;;7342702;19;20578;-46
2024/02/19 11:56:42;;;;;;;18.73;3.47;;;;;;;;;;7319242;19;20427;-45
2024/02/19 11:59:11;;;;;;;11.30;3.13;;;;;;;;;;7344744;19;20427;-48
2024/02/19 12:01:41;;;;;;;12.90;3.20;;;;;;;;;;7320675;19;20809;-48
2024/02/19 12:04:13;;;;;;;17.67;3.10;;;;;;;;;;7342643;19;20848;-46
2024/02/19 12:06:43;;;;;;;15.77;4.33;;;;;;;;;;7320364;19;20593;-46
2024/02/19 12:09:13;;;;;;;11.90;3.10;;;;;;;;;;7338456;19;20445;-50
2024/02/19 12:11:43;;;;;;;14.37;2.43;;;;;;;;;;7323468;19;20422;-49
2024/02/19 12:14:13;;;;;;;13.77;2.47;;;;;;;;;;7342657;19;20458;-45
2024/02/19 12:16:42;;;;;;;30.13;6.63;;;;;;;;;;7320145;19;20380;-46
2024/02/19 12:19:14;;;;;;;16.53;3.43;;;;;;;;;;7345349;19;20429;-45
2024/02/19 12:21:44;;;;;;;8.93;3.20;;;;;;;;;;7320239;19;20400;-51
2024/02/19 12:24:14;;;;;;;11.33;2.93;;;;;;;;;;7343842;19;20826;-45
2024/02/19 12:26:44;;;;;;;22.20;3.63;;;;;;;;;;7323262;19;20479;-46
2024/02/19 12:29:14;;;;;;;13.40;3.03;;;;;;;;;;7344899;19;20439;-48
2024/02/19 12:31:43;;;;;;;14.00;3.90;;;;;;;;;;7321999;19;20400;-47
2024/02/19 12:34:15;;;;;;;14.33;3.83;;;;;;;;;;7342765;19;20463;-44
2024/02/19 12:36:44;;;;;;;18.77;3.93;;;;;;;;;;7321596;19;20461;-48
2024/02/19 12:39:14;;;;;;;11.33;3.87;;;;;;;;;;7344011;19;20423;-46
2024/02/19 12:41:46;;;;;;;17.97;4.50;;;;;;;;;;7321167;19;20412;-47
2024/02/19 12:44:17;;;;;;;14.50;4.10;;;;;;;;;;7343272;19;20569;-46
2024/02/19 12:46:46;;;;;;;13.83;3.07;;;;;;;;;;7323668;19;20438;-48
2024/02/19 12:49:19;;;;;;;4.63;2.13;;;;;;;;;;7341553;19;20455;-47
2024/02/19 12:51:52;;;;;;;15.10;3.60;;;;;;;;;;7321476;19;20423;-46
2024/02/19 12:54:22;;;;;;;12.37;4.50;;;;;;;;;;7346457;19;20467;-48
2024/02/19 12:56:52;;;;;;;9.63;3.93;;;;;;;;;;7322008;19;20423;-49
2024/02/19 12:59:21;;;;;;;19.90;4.67;;;;;;;;;;7343448;19;20504;-51
2024/02/19 13:01:51;;;;;;;7.60;3.30;;;;;;;;;;7322140;19;20423;-47
2024/02/19 13:04:23;;;;;;;11.40;3.20;;;;;;;;;;7341789;19;20467;-47
2024/02/19 13:06:56;;;;;;;13.40;2.90;;;;;;;;;;7320854;19;20419;-49
2024/02/19 13:09:26;;;;;;;13.53;3.33;;;;;;;;;;7318390;19;20472;-47
2024/02/19 13:11:56;;;;;;;8.43;2.40;;;;;;;;;;7345201;19;20507;-46
2024/02/19 13:14:28;;;;;;;9.30;3.10;;;;;;;;;;7319114;19;20463;-49
2024/02/19 13:16:58;;;;;;;8.97;2.60;;;;;;;;;;7342955;19;20843;-45
2024/02/19 13:19:45;;;;;;;10.03;2.93;;;;;;;;;;7320650;19;20993;-44
2024/02/19 13:22:15;;;;;;;6.90;2.63;;;;;;;;;;7341688;19;20522;-47
2024/02/19 13:24:45;;;;;;;10.17;3.10;;;;;;;;;;7320496;19;20517;-48
2024/02/19 13:27:14;;;;;;;20.10;6.40;;;;;;;;;;7342692;19;20520;-45
2024/02/19 13:29:44;;;;;;;12.50;2.87;;;;;;;;;;7320248;19;20397;-46
2024/02/19 13:32:14;;;;;;;28.03;7.03;;;;;;;;;;7343793;19;20502;-44
2024/02/19 13:34:46;;;;;;;18.97;3.10;;;;;;;;;;7320330;19;20392;-47
2024/02/19 13:37:18;;;;;;;18.07;2.60;;;;;;;;;;7342908;19;20642;-46
2024/02/19 13:39:47;;;;;;;8.10;2.43;;;;;;;;;;7321642;19;20427;-47
2024/02/19 13:42:17;;;;;;;13.87;2.70;;;;;;;;;;7342610;19;20441;-43
2024/02/19 13:44:46;;;;;;;7.57;2.63;;;;;;;;;;7320834;19;20451;-44
2024/02/19 13:47:16;;;;;;;9.40;1.93;;;;;;;;;;7343600;19;20419;-45
2024/02/19 13:49:48;;;;;;;8.70;2.57;;;;;;;;;;7320023;19;20480;-46
2024/02/19 13:52:17;;;;;;;14.70;3.63;;;;;;;;;;7342206;19;20427;-45
2024/02/19 13:54:48;;;;;;;7.97;2.47;;;;;;;;;;7318167;19;20423;-46
2024/02/19 13:57:18;;;;;;;12.27;2.47;;;;;;;;;;7342090;19;20423;-46
2024/02/19 13:59:51;;;;;;;13.37;3.43;;;;;;;;;;7321045;19;20998;-46
2024/02/19 14:02:20;;;;;;;17.50;3.03;;;;;;;;;;7348517;19;20441;-44
2024/02/19 14:04:52;;;;;;;22.33;4.13;;;;;;;;;;7326431;19;20423;-46
2024/02/19 14:07:24;;;;;;;19.90;3.00;;;;;;;;;;7348976;19;20648;-44
2024/02/19 14:09:54;;;;;;;15.10;2.80;;;;;;;;;;7327394;19;20433;-45
2024/02/19 14:12:23;;;;;;;5.97;2.23;;;;;;;;;;7336357;19;20430;-44
2024/02/19 14:14:53;;;;;;;20.67;2.47;;;;;;;;;;7346598;19;20518;-45
2024/02/19 14:17:22;;;;;;;6.77;1.80;;;;;;;;;;7347601;19;20514;-45
2024/02/19 14:19:54;;;;;;;25.23;3.30;;;;;;;;;;7327746;19;20423;-45
2024/02/19 14:22:24;;;;;;;12.90;2.47;;;;;;;;;;7331436;19;20431;-45
2024/02/19 14:24:54;;;;;;;9.90;2.40;;;;;;;;;;7345971;19;20447;-44
2024/02/19 14:27:24;;;;;;;14.40;2.87;;;;;;;;;;7331578;19;20514;-44
2024/02/19 14:29:53;;;;;;;10.60;2.03;;;;;;;;;;7347248;19;20431;-45
2024/02/19 14:32:23;;;;;;;5.93;1.73;;;;;;;;;;7340984;19;20575;-44
2024/02/19 14:34:55;;;;;;;15.53;2.30;;;;;;;;;;7350494;19;20427;-47
2024/02/19 14:37:26;;;;;;;11.30;3.17;;;;;;;;;;7326682;19;20499;-47
2024/02/19 14:39:56;;;;;;;11.33;2.20;;;;;;;;;;7350585;19;20470;-46
2024/02/19 14:42:25;;;;;;;12.30;2.67;;;;;;;;;;7328139;19;20799;-47
2024/02/19 14:44:55;;;;;;;27.57;1.93;;;;;;;;;;7349996;19;20850;-48
2024/02/19 14:47:24;;;;;;;4.97;1.13;;;;;;;;;;7322761;19;20876;-43
2024/02/19 14:49:56;;;;;;;10.53;1.30;;;;;;;;;;7348911;19;20420;-44
2024/02/19 14:52:26;;;;;;;12.90;1.87;;;;;;;;;;7327579;19;20984;-45
2024/02/19 14:54:58;;;;;;;2.53;1.37;;;;;;;;;;7348943;19;20463;-46
2024/02/19 14:57:28;;;;;;;4.90;1.00;;;;;;;;;;7329839;19;20451;-45